createdAt,value
2017-04-26T00:00:35.573Z,59.70
2017-04-26T00:01:33.491Z,59.80
2017-04-26T00:02:31.394Z,59.80
2017-04-26T00:03:29.336Z,59.70
2017-04-26T00:04:27.288Z,59.80
2017-04-26T00:05:25.196Z,59.80
2017-04-26T00:06:23.108Z,59.70
2017-04-26T00:07:21.750Z,60.00
2017-04-26T00:08:19.719Z,60.00
2017-04-26T00:09:17.647Z,60.30
2017-04-26T00:10:15.599Z,60.40
2017-04-26T00:11:14.279Z,60.20
2017-04-26T00:12:12.235Z,60.10
2017-04-26T00:14:08.805Z,60.10
2017-04-26T00:15:06.746Z,60.20
2017-04-26T00:16:05.403Z,60.30
2017-04-26T00:17:04.076Z,60.80
2017-04-26T00:18:02.747Z,60.50
2017-04-26T00:19:01.415Z,60.60
2017-04-26T00:20:00.164Z,61.30
2017-04-26T00:21:56.626Z,60.60
2017-04-26T00:22:54.523Z,60.80
2017-04-26T00:23:52.471Z,61.00
2017-04-26T00:24:50.431Z,61.20
2017-04-26T00:25:49.180Z,61.30
2017-04-26T00:26:47.087Z,61.30
2017-04-26T00:27:45.943Z,61.40
2017-04-26T00:28:43.872Z,61.10
2017-04-26T00:29:41.917Z,61.30
2017-04-26T00:30:39.883Z,61.40
2017-04-26T00:31:38.587Z,61.40
2017-04-26T00:32:36.547Z,61.50
2017-04-26T00:33:35.179Z,62.60
2017-04-26T00:34:33.160Z,61.70
2017-04-26T00:35:31.079Z,61.60
2017-04-26T00:36:29.734Z,61.70
2017-04-26T00:37:27.651Z,61.90
2017-04-26T00:38:26.287Z,61.90
2017-04-26T00:39:24.187Z,62.00
2017-04-26T00:40:22.148Z,62.20
2017-04-26T00:41:20.043Z,62.30
2017-04-26T00:42:17.963Z,61.60
2017-04-26T00:43:15.859Z,61.60
2017-04-26T00:44:13.808Z,61.40
2017-04-26T00:45:11.807Z,61.70
2017-04-26T00:46:09.810Z,61.90
2017-04-26T00:47:07.792Z,61.90
2017-04-26T00:48:06.467Z,61.70
2017-04-26T00:49:05.109Z,61.80
2017-04-26T00:50:03.023Z,61.90
2017-04-26T00:51:00.978Z,61.90
2017-04-26T00:51:58.872Z,62.30
2017-04-26T00:52:56.767Z,62.20
2017-04-26T00:53:54.702Z,62.30
2017-04-26T00:54:53.344Z,62.20
2017-04-26T00:55:51.266Z,62.30
2017-04-26T00:56:49.199Z,62.40
2017-04-26T00:57:47.101Z,62.40
2017-04-26T00:58:45.019Z,62.50
2017-04-26T00:59:42.949Z,62.40
2017-04-26T01:00:40.875Z,62.40
2017-04-26T01:01:39.603Z,62.70
2017-04-26T01:02:37.604Z,62.60
2017-04-26T01:03:36.272Z,62.70
2017-04-26T01:04:34.224Z,62.90
2017-04-26T01:05:32.144Z,63.00
2017-04-26T01:06:30.082Z,62.90
2017-04-26T01:07:28.726Z,62.80
2017-04-26T01:08:26.632Z,62.80
2017-04-26T01:09:24.537Z,62.90
2017-04-26T01:10:22.446Z,63.10
2017-04-26T01:11:21.147Z,63.00
2017-04-26T01:12:19.063Z,63.00
2017-04-26T01:13:17.731Z,63.10
2017-04-26T01:14:16.386Z,63.10
2017-04-26T01:15:14.303Z,63.30
2017-04-26T01:16:12.208Z,63.40
2017-04-26T01:17:10.899Z,63.30
2017-04-26T01:18:08.828Z,63.50
2017-04-26T01:19:07.514Z,64.50
2017-04-26T01:20:06.735Z,63.50
2017-04-26T01:21:04.650Z,63.50
2017-04-26T01:22:02.631Z,63.60
2017-04-26T01:23:00.582Z,63.70
2017-04-26T01:23:58.531Z,63.80
2017-04-26T01:24:56.489Z,63.80
2017-04-26T01:25:54.575Z,64.00
2017-04-26T01:26:52.554Z,64.00
2017-04-26T01:27:51.204Z,64.90
2017-04-26T01:28:49.120Z,64.40
2017-04-26T01:29:47.039Z,64.50
2017-04-26T01:30:45.692Z,64.60
2017-04-26T01:31:43.627Z,64.70
2017-04-26T01:32:41.555Z,64.70
2017-04-26T01:33:39.559Z,64.70
2017-04-26T01:34:38.230Z,64.70
2017-04-26T01:35:36.875Z,65.50
2017-04-26T01:36:34.879Z,64.60
2017-04-26T01:37:32.831Z,64.80
2017-04-26T01:38:30.755Z,64.40
2017-04-26T01:39:29.431Z,64.50
2017-04-26T01:40:27.356Z,64.70
2017-04-26T01:41:25.274Z,64.60
2017-04-26T01:42:23.224Z,64.70
2017-04-26T01:43:21.146Z,64.90
2017-04-26T01:44:19.811Z,65.10
2017-04-26T01:45:18.468Z,65.10
2017-04-26T01:46:16.375Z,65.10
2017-04-26T01:47:14.263Z,65.20
2017-04-26T01:48:12.256Z,65.50
2017-04-26T01:49:10.164Z,65.60
2017-04-26T01:50:08.079Z,65.50
2017-04-26T01:51:05.990Z,65.60
2017-04-26T01:52:04.627Z,65.80
2017-04-26T01:53:02.603Z,65.70
2017-04-26T01:54:01.301Z,65.90
2017-04-26T01:54:59.978Z,65.80
2017-04-26T01:55:57.935Z,66.70
2017-04-26T01:56:55.879Z,66.10
2017-04-26T01:57:53.775Z,66.00
2017-04-26T01:58:51.714Z,66.00
2017-04-26T01:59:49.607Z,66.10
2017-04-26T02:00:47.515Z,66.00
2017-04-26T02:01:45.430Z,66.00
2017-04-26T02:02:44.059Z,66.10
2017-04-26T02:03:42.075Z,66.30
2017-04-26T02:04:39.995Z,66.30
2017-04-26T02:05:38.699Z,66.20
2017-04-26T02:06:36.930Z,66.00
2017-04-26T02:07:35.555Z,66.20
2017-04-26T02:08:33.492Z,66.20
2017-04-26T02:09:31.450Z,66.10
2017-04-26T02:10:30.116Z,65.90
2017-04-26T02:11:28.783Z,66.20
2017-04-26T02:12:26.692Z,66.20
2017-04-26T02:13:24.653Z,66.20
2017-04-26T02:14:22.573Z,66.10
2017-04-26T02:15:20.531Z,66.50
2017-04-26T02:16:18.516Z,66.10
2017-04-26T02:17:16.427Z,66.00
2017-04-26T02:18:14.403Z,66.00
2017-04-26T02:19:12.318Z,66.80
2017-04-26T02:20:11.039Z,66.20
2017-04-26T02:21:08.951Z,66.10
2017-04-26T02:22:07.607Z,66.10
2017-04-26T02:23:06.312Z,66.10
2017-04-26T02:24:04.259Z,66.30
2017-04-26T02:25:02.172Z,66.30
2017-04-26T02:26:00.114Z,66.30
2017-04-26T02:26:58.039Z,66.10
2017-04-26T02:27:55.943Z,66.20
2017-04-26T02:28:54.683Z,66.20
2017-04-26T02:29:52.620Z,66.50
2017-04-26T02:30:50.598Z,66.20
2017-04-26T02:31:48.608Z,66.30
2017-04-26T02:32:46.510Z,66.50
2017-04-26T02:33:44.451Z,66.50
2017-04-26T02:34:42.378Z,66.60
2017-04-26T02:35:40.294Z,66.60
2017-04-26T02:36:38.938Z,66.50
2017-04-26T02:37:36.823Z,66.70
2017-04-26T02:38:34.766Z,67.00
2017-04-26T02:39:33.414Z,67.10
2017-04-26T02:40:31.323Z,67.00
2017-04-26T02:41:29.222Z,67.10
2017-04-26T02:42:27.130Z,67.10
2017-04-26T02:43:25.079Z,66.90
2017-04-26T02:44:23.044Z,67.00
2017-04-26T02:45:21.006Z,67.20
2017-04-26T02:46:18.965Z,67.30
2017-04-26T02:47:16.902Z,67.30
2017-04-26T02:48:14.850Z,67.40
2017-04-26T02:49:12.748Z,67.60
2017-04-26T02:50:11.397Z,67.70
2017-04-26T02:51:09.313Z,67.90
2017-04-26T02:52:07.234Z,67.80
2017-04-26T02:53:05.861Z,68.00
2017-04-26T02:54:03.799Z,68.00
2017-04-26T02:55:01.715Z,68.00
2017-04-26T02:55:59.642Z,68.00
2017-04-26T02:56:57.526Z,67.80
2017-04-26T02:57:55.432Z,68.10
2017-04-26T02:58:53.404Z,68.40
2017-04-26T02:59:52.090Z,68.10
2017-04-26T03:00:50.776Z,68.80
2017-04-26T03:01:48.697Z,68.00
2017-04-26T03:02:47.346Z,68.80
2017-04-26T03:03:45.237Z,68.50
2017-04-26T03:04:43.918Z,68.50
2017-04-26T03:05:41.835Z,68.70
2017-04-26T03:06:39.726Z,68.70
2017-04-26T03:07:37.615Z,68.60
2017-04-26T03:08:35.505Z,68.50
2017-04-26T03:09:34.170Z,68.50
2017-04-26T03:10:32.081Z,68.60
2017-04-26T03:11:29.998Z,68.80
2017-04-26T03:12:28.635Z,68.90
2017-04-26T03:14:25.188Z,68.90
2017-04-26T03:15:23.870Z,69.20
2017-04-26T03:16:21.792Z,69.20
2017-04-26T03:17:19.742Z,69.50
2017-04-26T03:18:17.660Z,69.50
2017-04-26T03:19:15.574Z,69.80
2017-04-26T03:20:14.311Z,70.10
2017-04-26T03:21:18.969Z,69.90
2017-04-26T03:22:16.850Z,69.70
2017-04-26T03:23:14.742Z,69.70
2017-04-26T03:24:12.622Z,69.70
2017-04-26T03:25:10.542Z,69.60
2017-04-26T03:26:08.490Z,69.60
2017-04-26T03:27:06.376Z,70.00
2017-04-26T03:28:04.277Z,70.00
2017-04-26T03:29:02.169Z,70.40
2017-04-26T03:30:00.066Z,70.20
2017-04-26T03:30:58.014Z,70.40
2017-04-26T03:31:55.947Z,70.20
2017-04-26T03:32:53.868Z,70.30
2017-04-26T03:33:52.523Z,70.30
2017-04-26T03:34:50.483Z,70.20
2017-04-26T03:35:48.487Z,70.20
2017-04-26T03:36:46.397Z,70.40
2017-04-26T03:37:44.298Z,70.20
2017-04-26T03:38:42.198Z,70.00
2017-04-26T03:39:40.835Z,69.50
2017-04-26T03:40:38.742Z,70.40
2017-04-26T03:41:37.413Z,70.30
2017-04-26T03:42:35.303Z,70.20
2017-04-26T03:43:33.187Z,70.10
2017-04-26T03:44:31.087Z,70.20
2017-04-26T03:45:29.010Z,70.50
2017-04-26T03:46:27.706Z,71.00
2017-04-26T03:47:25.601Z,70.30
2017-04-26T03:48:23.537Z,70.50
2017-04-26T03:49:21.471Z,70.40
2017-04-26T03:50:19.402Z,70.40
2017-04-26T03:51:17.311Z,70.00
2017-04-26T03:52:15.237Z,70.10
2017-04-26T03:53:13.120Z,69.80
2017-04-26T03:54:11.038Z,69.70
2017-04-26T03:55:08.926Z,70.10
2017-04-26T03:56:06.816Z,70.10
2017-04-26T03:57:04.762Z,71.10
2017-04-26T03:58:02.662Z,70.10
2017-04-26T03:59:00.549Z,70.40
2017-04-26T03:59:59.187Z,70.40
2017-04-26T04:00:57.104Z,70.60
2017-04-26T04:01:55.026Z,70.90
2017-04-26T04:02:53.746Z,71.00
2017-04-26T04:03:51.673Z,71.10
2017-04-26T04:04:49.634Z,71.20
2017-04-26T04:05:47.547Z,71.30
2017-04-26T04:06:46.201Z,71.30
2017-04-26T04:07:44.139Z,71.50
2017-04-26T04:08:42.026Z,71.50
2017-04-26T04:09:39.925Z,71.40
2017-04-26T04:10:37.822Z,71.50
2017-04-26T04:11:36.462Z,71.80
2017-04-26T04:12:34.443Z,71.90
2017-04-26T04:13:33.098Z,72.20
2017-04-26T04:14:31.271Z,72.00
2017-04-26T04:15:29.902Z,71.80
2017-04-26T04:16:27.790Z,71.30
2017-04-26T04:17:26.442Z,71.30
2017-04-26T04:18:24.392Z,71.30
2017-04-26T04:19:22.303Z,71.30
2017-04-26T04:20:20.314Z,71.70
2017-04-26T04:21:18.216Z,71.90
2017-04-26T04:22:16.118Z,71.70
2017-04-26T04:23:14.055Z,71.70
2017-04-26T04:24:11.978Z,71.80
2017-04-26T04:25:09.862Z,71.90
2017-04-26T04:26:07.766Z,71.90
2017-04-26T04:27:05.662Z,72.00
2017-04-26T04:28:03.606Z,72.10
2017-04-26T04:29:01.502Z,72.20
2017-04-26T04:30:00.142Z,72.10
2017-04-26T04:30:58.198Z,72.20
2017-04-26T04:31:56.086Z,72.00
2017-04-26T04:32:54.451Z,72.00
2017-04-26T04:33:52.448Z,72.00
2017-04-26T04:34:51.663Z,71.90
2017-04-26T04:35:50.359Z,72.20
2017-04-26T04:36:48.318Z,72.40
2017-04-26T04:37:46.231Z,72.20
2017-04-26T04:38:44.164Z,72.10
2017-04-26T04:39:42.050Z,72.10
2017-04-26T04:40:40.686Z,72.40
2017-04-26T04:41:38.595Z,72.80
2017-04-26T04:42:36.495Z,72.60
2017-04-26T04:43:34.390Z,72.70
2017-04-26T04:44:32.446Z,73.00
2017-04-26T04:45:30.342Z,72.70
2017-04-26T04:46:28.231Z,72.80
2017-04-26T04:47:26.853Z,72.80
2017-04-26T04:48:24.739Z,72.80
2017-04-26T04:49:22.702Z,72.80
2017-04-26T04:50:21.374Z,72.70
2017-04-26T04:51:19.342Z,72.90
2017-04-26T04:52:17.255Z,72.90
2017-04-26T04:53:15.166Z,72.40
2017-04-26T04:54:13.103Z,72.50
2017-04-26T04:55:11.002Z,72.30
2017-04-26T04:56:08.894Z,72.00
2017-04-26T04:57:07.527Z,71.80
2017-04-26T04:58:05.424Z,72.00
2017-04-26T04:59:03.365Z,71.70
2017-04-26T05:00:02.014Z,71.70
2017-04-26T05:00:59.907Z,71.80
2017-04-26T05:01:57.875Z,71.50
2017-04-26T05:02:55.770Z,71.70
2017-04-26T05:03:53.747Z,71.90
2017-04-26T05:04:52.451Z,71.60
2017-04-26T05:05:50.424Z,71.40
2017-04-26T05:06:48.327Z,71.10
2017-04-26T05:07:46.970Z,71.40
2017-04-26T05:08:44.862Z,71.60
2017-04-26T05:09:42.789Z,71.60
2017-04-26T05:10:40.683Z,71.60
2017-04-26T05:11:38.586Z,71.90
2017-04-26T05:12:36.491Z,72.00
2017-04-26T05:13:35.151Z,71.50
2017-04-26T05:14:33.118Z,70.80
2017-04-26T05:15:31.763Z,70.60
2017-04-26T05:16:29.654Z,70.80
2017-04-26T05:17:27.554Z,70.70
2017-04-26T05:18:25.499Z,70.20
2017-04-26T05:19:23.458Z,70.00
2017-04-26T05:20:21.483Z,70.00
2017-04-26T05:21:19.421Z,70.60
2017-04-26T05:22:17.326Z,69.90
2017-04-26T05:23:15.230Z,70.00
2017-04-26T05:24:13.133Z,69.00
2017-04-26T05:25:11.066Z,68.80
2017-04-26T05:26:08.959Z,69.00
2017-04-26T05:27:07.603Z,69.60
2017-04-26T05:28:05.503Z,69.10
2017-04-26T05:29:03.414Z,69.10
2017-04-26T05:30:01.360Z,69.10
2017-04-26T05:30:59.253Z,69.40
2017-04-26T05:31:57.179Z,70.40
2017-04-26T05:32:55.147Z,69.50
2017-04-26T05:33:53.818Z,69.70
2017-04-26T05:34:52.632Z,69.60
2017-04-26T05:35:50.619Z,69.00
2017-04-26T05:36:48.513Z,69.10
2017-04-26T05:37:46.411Z,69.40
2017-04-26T05:38:44.293Z,69.60
2017-04-26T05:39:42.952Z,69.50
2017-04-26T05:40:40.887Z,69.70
2017-04-26T05:41:38.790Z,70.00
2017-04-26T05:42:36.709Z,71.10
2017-04-26T05:43:34.602Z,70.20
2017-04-26T05:44:32.578Z,70.10
2017-04-26T05:45:30.518Z,69.90
2017-04-26T05:46:28.443Z,70.20
2017-04-26T05:47:26.454Z,70.00
2017-04-26T05:48:24.401Z,70.30
2017-04-26T05:49:22.333Z,69.90
2017-04-26T05:50:20.330Z,69.70
2017-04-26T05:51:18.226Z,70.00
2017-04-26T05:52:16.139Z,70.10
2017-04-26T05:53:14.035Z,69.90
2017-04-26T05:54:11.970Z,69.50
2017-04-26T05:55:09.885Z,69.70
2017-04-26T05:56:07.842Z,69.90
2017-04-26T05:57:05.767Z,69.70
2017-04-26T05:58:03.664Z,69.70
2017-04-26T05:59:02.303Z,69.60
2017-04-26T06:00:00.208Z,69.70
2017-04-26T06:00:58.127Z,69.80
2017-04-26T06:01:56.065Z,70.10
2017-04-26T06:02:54.020Z,69.90
2017-04-26T06:03:51.935Z,69.70
2017-04-26T06:04:50.006Z,69.50
2017-04-26T06:05:47.937Z,69.10
2017-04-26T06:06:45.861Z,69.40
2017-04-26T06:07:44.502Z,69.50
2017-04-26T06:08:42.399Z,69.60
2017-04-26T06:09:40.298Z,69.50
2017-04-26T06:10:38.210Z,69.30
2017-04-26T06:11:36.148Z,69.20
2017-04-26T06:12:34.825Z,69.20
2017-04-26T06:13:32.726Z,69.40
2017-04-26T06:14:30.859Z,69.70
2017-04-26T06:15:28.767Z,69.60
2017-04-26T06:16:27.463Z,69.80
2017-04-26T06:17:25.374Z,69.90
2017-04-26T06:18:23.379Z,69.90
2017-04-26T06:19:21.354Z,70.10
2017-04-26T06:20:20.211Z,70.20
2017-04-26T06:21:18.106Z,69.60
2017-04-26T06:22:16.037Z,70.00
2017-04-26T06:23:13.982Z,70.00
2017-04-26T06:24:11.870Z,70.00
2017-04-26T06:25:09.770Z,69.90
2017-04-26T06:26:07.655Z,69.50
2017-04-26T06:27:05.546Z,69.50
2017-04-26T06:28:04.206Z,69.70
2017-04-26T06:29:02.902Z,69.70
2017-04-26T06:30:00.818Z,69.80
2017-04-26T06:30:58.710Z,70.10
2017-04-26T06:31:56.614Z,70.00
2017-04-26T06:32:54.538Z,70.10
2017-04-26T06:33:53.268Z,70.10
2017-04-26T06:34:51.975Z,70.20
2017-04-26T06:35:49.966Z,70.00
2017-04-26T06:36:47.867Z,69.40
2017-04-26T06:37:45.766Z,69.30
2017-04-26T06:38:43.704Z,68.70
2017-04-26T06:39:41.618Z,68.80
2017-04-26T06:40:39.511Z,68.70
2017-04-26T06:41:37.413Z,68.90
2017-04-26T06:42:35.329Z,69.10
2017-04-26T06:43:33.267Z,69.50
2017-04-26T06:44:31.479Z,69.10
2017-04-26T06:45:29.482Z,69.20
2017-04-26T06:46:27.633Z,69.30
2017-04-26T06:47:25.534Z,69.30
2017-04-26T06:48:24.210Z,69.40
2017-04-26T06:49:22.138Z,69.10
2017-04-26T06:50:20.841Z,68.40
2017-04-26T06:51:18.754Z,68.40
2017-04-26T06:52:16.683Z,68.20
2017-04-26T06:53:14.595Z,67.20
2017-04-26T06:54:12.543Z,66.70
2017-04-26T06:55:10.466Z,66.60
2017-04-26T06:56:08.366Z,66.60
2017-04-26T06:57:06.254Z,67.00
2017-04-26T06:58:04.222Z,67.20
2017-04-26T06:59:02.171Z,67.50
2017-04-26T07:00:00.122Z,67.10
2017-04-26T07:00:58.014Z,67.10
2017-04-26T07:01:55.935Z,67.80
2017-04-26T07:03:02.638Z,67.20
2017-04-26T07:04:00.549Z,67.10
2017-04-26T07:04:59.250Z,67.20
2017-04-26T07:05:57.147Z,67.50
2017-04-26T07:06:55.082Z,66.50
2017-04-26T07:07:53.021Z,66.20
2017-04-26T07:08:51.027Z,66.00
2017-04-26T07:09:48.934Z,65.70
2017-04-26T07:10:46.882Z,65.90
2017-04-26T07:11:44.787Z,65.60
2017-04-26T07:12:42.670Z,66.20
2017-04-26T07:13:40.558Z,65.00
2017-04-26T07:14:38.462Z,65.10
2017-04-26T07:15:36.394Z,65.00
2017-04-26T07:16:34.343Z,65.70
2017-04-26T07:17:32.329Z,65.70
2017-04-26T07:18:30.291Z,65.70
2017-04-26T07:19:28.195Z,65.20
2017-04-26T07:20:26.906Z,64.50
2017-04-26T07:21:24.852Z,64.00
2017-04-26T07:22:22.818Z,64.20
2017-04-26T07:23:20.726Z,64.10
2017-04-26T07:24:19.363Z,64.00
2017-04-26T07:25:17.268Z,63.80
2017-04-26T07:26:15.170Z,64.20
2017-04-26T07:27:13.091Z,63.60
2017-04-26T07:28:11.054Z,63.80
2017-04-26T07:29:08.966Z,64.10
2017-04-26T07:30:06.894Z,64.60
2017-04-26T07:31:05.661Z,62.90
2017-04-26T07:32:03.654Z,61.70
2017-04-26T07:33:01.635Z,62.10
2017-04-26T07:33:59.550Z,61.90
2017-04-26T07:34:57.450Z,62.70
2017-04-26T07:35:55.362Z,61.80
2017-04-26T07:36:53.303Z,62.20
2017-04-26T07:37:51.238Z,62.30
2017-04-26T07:38:49.142Z,62.20
2017-04-26T07:39:47.044Z,61.80
2017-04-26T07:40:45.690Z,62.40
2017-04-26T07:41:43.604Z,62.30
2017-04-26T07:42:41.554Z,62.20
2017-04-26T07:43:39.470Z,62.00
2017-04-26T07:44:38.121Z,62.30
2017-04-26T07:45:36.053Z,61.60
2017-04-26T07:46:34.016Z,61.00
2017-04-26T07:47:31.981Z,61.00
2017-04-26T07:48:29.981Z,61.30
2017-04-26T07:49:27.874Z,61.60
2017-04-26T07:50:25.798Z,61.40
2017-04-26T07:51:23.716Z,61.40
2017-04-26T07:52:22.390Z,61.60
2017-04-26T07:53:21.023Z,62.00
2017-04-26T07:54:18.923Z,61.60
2017-04-26T07:55:16.831Z,60.60
2017-04-26T07:56:14.746Z,60.80
2017-04-26T07:57:12.687Z,60.80
2017-04-26T07:58:10.594Z,60.90
2017-04-26T07:59:08.539Z,61.40
2017-04-26T08:00:06.491Z,61.70
2017-04-26T08:01:11.160Z,61.00
2017-04-26T08:02:09.103Z,61.30
2017-04-26T08:03:07.030Z,60.70
2017-04-26T08:04:05.715Z,61.20
2017-04-26T08:05:03.679Z,60.90
2017-04-26T08:06:01.631Z,61.30
2017-04-26T08:06:59.553Z,60.90
2017-04-26T08:07:57.507Z,60.60
2017-04-26T08:08:55.395Z,59.80
2017-04-26T08:09:53.340Z,59.30
2017-04-26T08:10:51.304Z,59.40
2017-04-26T08:11:49.229Z,59.70
2017-04-26T08:12:47.145Z,59.90
2017-04-26T08:13:45.091Z,60.30
2017-04-26T08:15:41.539Z,60.20
2017-04-26T08:16:39.438Z,59.70
2017-04-26T08:17:37.386Z,60.20
2017-04-26T08:18:35.286Z,60.30
2017-04-26T08:19:33.937Z,59.90
2017-04-26T08:20:31.899Z,60.50
2017-04-26T08:21:29.802Z,60.60
2017-04-26T08:22:27.690Z,60.00
2017-04-26T08:23:25.694Z,60.30
2017-04-26T08:24:23.653Z,59.80
2017-04-26T08:25:21.610Z,59.70
2017-04-26T08:26:19.538Z,59.40
2017-04-26T08:27:18.187Z,59.50
2017-04-26T08:28:16.070Z,59.40
2017-04-26T08:29:14.002Z,58.80
2017-04-26T08:30:12.634Z,59.10
2017-04-26T08:31:10.698Z,58.70
2017-04-26T08:32:08.612Z,59.20
2017-04-26T08:33:06.510Z,58.90
2017-04-26T08:34:04.446Z,59.20
2017-04-26T08:35:02.334Z,59.10
2017-04-26T08:36:00.962Z,58.70
2017-04-26T08:36:58.854Z,59.10
2017-04-26T08:37:57.496Z,59.30
2017-04-26T08:38:55.483Z,58.40
2017-04-26T08:39:54.158Z,58.20
2017-04-26T08:40:52.871Z,58.30
2017-04-26T08:41:50.828Z,59.20
2017-04-26T08:42:48.735Z,59.60
2017-04-26T08:43:47.383Z,60.00
2017-04-26T08:44:45.327Z,59.40
2017-04-26T08:45:43.218Z,58.40
2017-04-26T08:46:41.107Z,58.40
2017-04-26T08:47:38.999Z,58.30
2017-04-26T08:48:36.939Z,58.10
2017-04-26T08:49:34.849Z,58.00
2017-04-26T08:50:32.754Z,57.20
2017-04-26T08:51:30.646Z,56.80
2017-04-26T08:52:28.562Z,56.90
2017-04-26T08:53:26.494Z,57.30
2017-04-26T08:54:24.546Z,57.00
2017-04-26T08:55:22.500Z,57.40
2017-04-26T08:56:20.434Z,57.10
2017-04-26T08:57:18.349Z,56.90
2017-04-26T08:58:16.251Z,57.20
2017-04-26T08:59:14.194Z,57.20
2017-04-26T09:00:12.101Z,56.80
2017-04-26T09:01:10.786Z,57.30
2017-04-26T09:02:08.694Z,57.20
2017-04-26T09:03:06.604Z,57.20
2017-04-26T09:04:04.564Z,57.10
2017-04-26T09:05:02.474Z,57.40
2017-04-26T09:06:01.114Z,57.00
2017-04-26T09:06:59.051Z,57.10
2017-04-26T09:07:56.958Z,57.20
2017-04-26T09:08:54.881Z,57.30
2017-04-26T09:09:52.766Z,57.10
2017-04-26T09:10:50.660Z,57.10
2017-04-26T09:11:48.590Z,57.20
2017-04-26T09:12:46.482Z,57.50
2017-04-26T09:13:45.110Z,57.40
2017-04-26T09:14:43.018Z,57.10
2017-04-26T09:15:40.911Z,57.30
2017-04-26T09:16:38.855Z,56.80
2017-04-26T09:17:36.778Z,56.70
2017-04-26T09:18:34.730Z,56.90
2017-04-26T09:19:32.671Z,57.50
2017-04-26T09:20:31.386Z,57.50
2017-04-26T09:21:29.298Z,57.10
2017-04-26T09:22:27.230Z,57.20
2017-04-26T09:23:25.131Z,57.40
2017-04-26T09:24:23.026Z,57.20
2017-04-26T09:25:20.918Z,57.10
2017-04-26T09:26:18.818Z,56.50
2017-04-26T09:27:16.769Z,56.30
2017-04-26T09:28:14.675Z,56.30
2017-04-26T09:29:12.590Z,56.40
2017-04-26T09:30:10.526Z,56.20
2017-04-26T09:31:09.186Z,56.30
2017-04-26T09:32:07.105Z,56.30
2017-04-26T09:33:05.103Z,55.60
2017-04-26T09:34:03.056Z,55.80
2017-04-26T09:35:01.944Z,56.20
2017-04-26T09:36:00.007Z,56.10
2017-04-26T09:36:57.910Z,56.40
2017-04-26T09:37:55.842Z,56.90
2017-04-26T09:38:53.741Z,56.80
2017-04-26T09:39:51.651Z,56.80
2017-04-26T09:40:49.544Z,57.10
2017-04-26T09:41:48.182Z,57.10
2017-04-26T09:42:46.146Z,56.90
2017-04-26T09:43:44.041Z,56.60
2017-04-26T09:44:41.938Z,57.20
2017-04-26T09:45:39.855Z,57.10
2017-04-26T09:46:38.498Z,57.20
2017-04-26T09:47:36.414Z,56.80
2017-04-26T09:48:34.391Z,56.70
2017-04-26T09:49:32.331Z,57.30
2017-04-26T09:50:30.272Z,57.50
2017-04-26T09:51:28.170Z,57.70
2017-04-26T09:52:26.078Z,58.10
2017-04-26T09:53:24.010Z,58.10
2017-04-26T09:54:22.690Z,57.60
2017-04-26T09:55:20.578Z,57.70
2017-04-26T09:56:18.474Z,57.40
2017-04-26T09:57:17.115Z,57.00
2017-04-26T09:58:15.078Z,56.70
2017-04-26T09:59:12.982Z,56.90
2017-04-26T10:00:10.889Z,57.00
2017-04-26T10:01:08.806Z,56.70
2017-04-26T10:02:06.694Z,56.70
2017-04-26T10:03:05.365Z,56.70
2017-04-26T10:04:04.100Z,57.00
2017-04-26T10:05:02.074Z,56.40
2017-04-26T10:05:59.986Z,56.30
2017-04-26T10:06:57.893Z,56.10
2017-04-26T10:07:55.795Z,56.00
2017-04-26T10:08:53.739Z,55.50
2017-04-26T10:09:51.738Z,56.00
2017-04-26T10:10:50.420Z,55.80
2017-04-26T10:11:48.323Z,55.60
2017-04-26T10:12:46.218Z,55.90
2017-04-26T10:13:44.142Z,56.10
2017-04-26T10:15:03.898Z,56.40
2017-04-26T10:15:40.106Z,56.50
2017-04-26T10:16:38.003Z,55.70
2017-04-26T10:17:35.903Z,55.40
2017-04-26T10:18:33.883Z,55.40
2017-04-26T10:19:31.783Z,55.30
2017-04-26T10:20:29.714Z,55.40
2017-04-26T10:21:27.602Z,55.70
2017-04-26T10:22:25.526Z,55.50
2017-04-26T10:23:24.202Z,55.50
2017-04-26T10:24:22.890Z,54.90
2017-04-26T10:25:20.822Z,55.10
2017-04-26T10:26:19.458Z,55.30
2017-04-26T10:27:17.358Z,55.70
2017-04-26T10:28:15.270Z,56.20
2017-04-26T10:29:13.186Z,56.00
2017-04-26T10:30:11.086Z,56.30
2017-04-26T10:31:08.986Z,55.60
2017-04-26T10:32:06.899Z,53.70
2017-04-26T10:33:05.526Z,53.70
2017-04-26T10:34:04.229Z,54.50
2017-04-26T10:35:01.523Z,54.00
2017-04-26T10:35:59.410Z,53.90
2017-04-26T10:36:57.325Z,53.70
2017-04-26T10:37:55.282Z,53.40
2017-04-26T10:38:53.205Z,53.50
2017-04-26T10:39:51.166Z,54.20
2017-04-26T10:40:49.070Z,54.10
2017-04-26T10:41:46.958Z,54.00
2017-04-26T10:42:44.862Z,54.30
2017-04-26T10:43:42.779Z,54.40
2017-04-26T10:46:47.302Z,54.50
2017-04-26T10:49:15.283Z,55.00
2017-04-26T10:51:40.955Z,55.00
2017-04-26T10:54:07.734Z,55.50
2017-04-26T10:56:34.566Z,55.00
2017-04-26T10:59:01.342Z,55.00
2017-04-26T11:01:28.866Z,53.80
2017-04-26T11:03:55.699Z,53.80
2017-04-26T11:06:22.474Z,54.00
2017-04-26T11:08:49.262Z,54.10
2017-04-26T11:11:16.101Z,53.70
2017-04-26T11:13:43.642Z,53.40
2017-04-26T11:16:11.162Z,48.00
2017-04-26T11:18:37.978Z,51.30
2017-04-26T11:21:04.791Z,49.50
2017-04-26T11:23:31.578Z,49.70
2017-04-26T11:25:59.130Z,50.30
2017-04-26T11:28:25.911Z,50.00
2017-04-26T11:30:52.730Z,50.30
2017-04-26T11:33:19.522Z,50.40
2017-04-26T11:35:46.398Z,51.20
2017-04-26T11:38:13.182Z,51.10
2017-04-26T11:40:39.999Z,51.40
2017-04-26T11:43:06.778Z,52.50
2017-04-26T11:45:33.603Z,51.60
2017-04-26T11:48:00.382Z,52.80
2017-04-26T11:50:27.198Z,53.30
2017-04-26T11:52:53.978Z,49.20
2017-04-26T11:55:20.814Z,51.00
2017-04-26T11:57:47.615Z,51.70
2017-04-26T12:00:14.442Z,49.90
2017-04-26T12:02:41.270Z,51.90
2017-04-26T12:05:08.799Z,51.20
2017-04-26T12:07:36.369Z,51.50
2017-04-26T12:10:03.199Z,52.20
2017-04-26T12:12:29.974Z,53.30
2017-04-26T12:14:56.795Z,54.30
2017-04-26T12:17:23.570Z,55.30
2017-04-26T12:19:50.395Z,55.80
2017-04-26T12:22:18.018Z,54.60
2017-04-26T12:24:44.871Z,54.50
2017-04-26T12:27:12.390Z,55.40
2017-04-26T12:29:39.161Z,55.60
2017-04-26T12:32:05.986Z,56.40
2017-04-26T12:34:32.805Z,56.60
2017-04-26T12:36:59.614Z,57.50
2017-04-26T12:39:27.130Z,57.10
2017-04-26T12:41:53.962Z,56.20
2017-04-26T12:44:20.757Z,56.70
2017-04-26T12:46:47.554Z,56.40
2017-04-26T12:49:14.399Z,56.70
2017-04-26T12:51:41.179Z,55.70
2017-04-26T12:54:07.991Z,56.10
2017-04-26T12:56:35.515Z,55.80
2017-04-26T12:59:02.347Z,55.00
2017-04-26T13:01:29.138Z,54.80
2017-04-26T13:03:55.983Z,54.80
2017-04-26T13:06:22.763Z,53.80
2017-04-26T13:08:49.578Z,53.30
2017-04-26T13:11:17.098Z,53.30
2017-04-26T13:13:43.918Z,51.80
2017-04-26T13:16:10.698Z,52.00
2017-04-26T13:18:37.510Z,51.90
2017-04-26T13:21:05.030Z,50.40
2017-04-26T13:23:31.892Z,48.40
2017-04-26T13:25:58.731Z,48.00
2017-04-26T13:28:25.553Z,48.40
2017-04-26T13:30:52.374Z,47.30
2017-04-26T13:33:19.153Z,45.10
2017-04-26T13:35:46.015Z,47.20
2017-04-26T13:38:13.543Z,47.30
2017-04-26T13:40:40.364Z,46.80
2017-04-26T13:43:07.147Z,45.00
2017-04-26T13:45:33.963Z,44.10
2017-04-26T13:48:00.758Z,45.80
2017-04-26T13:50:27.582Z,44.10
2017-04-26T13:52:54.370Z,40.40
2017-04-26T13:55:21.190Z,41.50
2017-04-26T13:57:47.993Z,40.10
2017-04-26T14:00:14.830Z,41.70
2017-04-26T14:02:42.350Z,40.90
2017-04-26T14:05:09.126Z,39.70
2017-04-26T14:07:35.946Z,39.40
2017-04-26T14:10:02.754Z,40.70
2017-04-26T14:12:30.267Z,39.50
2017-04-26T14:14:57.116Z,40.30
2017-04-26T14:17:23.894Z,40.50
2017-04-26T14:19:50.727Z,39.50
2017-04-26T14:22:17.533Z,37.80
2017-04-26T14:24:44.323Z,38.00
2017-04-26T14:27:11.154Z,40.00
2017-04-26T14:29:37.942Z,40.10
2017-04-26T14:32:04.774Z,39.40
2017-04-26T14:34:31.591Z,40.00
2017-04-26T14:36:58.414Z,42.00
2017-04-26T14:39:25.231Z,39.70
2017-04-26T14:41:52.058Z,39.90
2017-04-26T14:44:18.863Z,37.30
2017-04-26T14:46:46.461Z,35.10
2017-04-26T14:49:13.246Z,34.60
2017-04-26T14:51:40.759Z,33.40
2017-04-26T14:54:07.575Z,33.40
2017-04-26T14:56:34.355Z,34.00
2017-04-26T14:59:01.179Z,32.40
2017-04-26T15:01:27.967Z,31.70
2017-04-26T15:03:54.782Z,31.30
2017-04-26T15:06:21.571Z,32.90
2017-04-26T15:08:48.410Z,34.20
2017-04-26T15:11:15.238Z,34.40
2017-04-26T15:13:42.059Z,34.00
2017-04-26T15:16:08.843Z,34.40
2017-04-26T15:18:35.663Z,36.40